createdAt,value
2019-06-07T00:02:10.666Z,10.96
2019-06-07T00:04:21.678Z,11.00
2019-06-07T00:06:32.567Z,11.03
2019-06-07T00:08:43.498Z,11.07
2019-06-07T00:10:54.366Z,11.09
2019-06-07T00:13:05.293Z,11.06
2019-06-07T00:15:21.908Z,11.09
2019-06-07T00:17:29.093Z,11.20
2019-06-07T00:19:40.024Z,11.22
2019-06-07T00:22:15.889Z,11.19
2019-06-07T00:24:03.830Z,11.21
2019-06-07T00:26:18.163Z,11.10
2019-06-07T00:28:27.413Z,10.92
2019-06-07T00:30:50.528Z,10.84
2019-06-07T00:32:51.418Z,10.84
2019-06-07T00:35:06.889Z,10.80
2019-06-07T00:37:20.718Z,10.76
2019-06-07T00:39:32.388Z,10.78
2019-06-07T00:41:43.337Z,10.76
2019-06-07T00:43:54.274Z,10.73
2019-06-07T00:46:05.104Z,10.79
2019-06-07T00:48:26.765Z,10.73
2019-06-07T00:50:28.735Z,10.63
2019-06-07T00:53:14.103Z,10.48
2019-06-07T00:54:52.411Z,10.41
2019-06-07T00:57:03.474Z,10.44
2019-06-07T00:59:16.875Z,10.51
2019-06-07T01:01:27.161Z,10.51
2019-06-07T01:03:37.985Z,10.60
2019-06-07T01:05:48.810Z,10.66
2019-06-07T01:08:01.574Z,10.81
2019-06-07T01:10:13.838Z,10.85
2019-06-07T01:12:27.020Z,10.93
2019-06-07T01:14:38.618Z,10.89
2019-06-07T01:16:57.247Z,10.78
2019-06-07T01:19:02.469Z,10.78
2019-06-07T01:21:15.813Z,10.86
2019-06-07T01:25:38.836Z,11.12
2019-06-07T01:27:49.694Z,11.20
2019-06-07T01:30:00.637Z,11.17
2019-06-07T01:32:11.458Z,11.15
2019-06-07T01:34:25.690Z,11.11
2019-06-07T01:36:35.116Z,10.97
2019-06-07T01:38:45.955Z,10.93
2019-06-07T01:40:56.770Z,10.92
2019-06-07T01:43:07.606Z,10.93
2019-06-07T01:45:19.542Z,10.93
2019-06-07T01:47:32.030Z,10.93
2019-06-07T01:49:43.363Z,10.93
2019-06-07T01:51:54.279Z,10.82
2019-06-07T01:56:18.902Z,10.82
2019-06-07T01:58:30.704Z,10.93
2019-06-07T02:00:41.584Z,11.01
2019-06-07T02:02:52.452Z,11.05
2019-06-07T02:05:04.370Z,11.02
2019-06-07T02:07:15.195Z,10.98
2019-06-07T02:09:29.862Z,10.95
2019-06-07T02:11:38.897Z,10.87
2019-06-07T02:13:49.729Z,10.88
2019-06-07T02:16:00.551Z,10.90
2019-06-07T02:18:11.384Z,10.91
2019-06-07T02:20:23.829Z,10.92
2019-06-07T02:22:35.574Z,10.96
2019-06-07T02:24:46.404Z,11.02
2019-06-07T02:26:57.224Z,11.11
2019-06-07T02:29:08.079Z,11.11
2019-06-07T02:31:18.900Z,11.16
2019-06-07T02:33:35.134Z,11.17
2019-06-07T02:35:42.469Z,11.21
2019-06-07T02:37:53.296Z,11.26
2019-06-07T02:40:05.940Z,11.27
2019-06-07T02:42:16.765Z,11.23
2019-06-07T02:44:31.821Z,11.24
2019-06-07T02:46:49.253Z,11.26
2019-06-07T02:48:54.061Z,11.21
2019-06-07T02:51:04.878Z,11.17
2019-06-07T02:53:15.698Z,11.17
2019-06-07T02:55:29.576Z,11.18
2019-06-07T02:57:41.560Z,11.22
2019-06-07T03:00:06.738Z,11.26
2019-06-07T03:02:05.015Z,11.23
2019-06-07T03:04:17.174Z,11.24
2019-06-07T03:06:31.850Z,11.29
2019-06-07T03:08:44.039Z,11.34
2019-06-07T03:10:56.871Z,11.34
2019-06-07T03:13:08.818Z,11.32
2019-06-07T03:15:32.835Z,11.27
2019-06-07T03:17:40.531Z,11.27
2019-06-07T03:19:52.936Z,11.19
2019-06-07T03:22:03.958Z,11.11
2019-06-07T03:24:14.834Z,11.14
2019-06-07T03:26:27.587Z,11.22
2019-06-07T03:28:39.555Z,11.24
2019-06-07T03:31:01.431Z,11.28
2019-06-07T03:33:03.370Z,11.34
2019-06-07T03:35:14.216Z,11.39
2019-06-07T03:37:25.024Z,11.45
2019-06-07T03:39:37.008Z,11.44
2019-06-07T03:42:05.115Z,11.47
2019-06-07T03:44:01.318Z,11.55
2019-06-07T03:46:12.234Z,11.56
2019-06-07T03:48:23.049Z,11.58
2019-06-07T03:50:36.663Z,11.60
2019-06-07T03:52:47.014Z,11.58
2019-06-07T03:54:57.842Z,11.55
2019-06-07T03:57:08.698Z,11.54
2019-06-07T03:59:19.517Z,11.61
2019-06-07T04:01:32.218Z,11.61
2019-06-07T04:03:51.100Z,11.65
2019-06-07T04:05:55.824Z,11.70
2019-06-07T04:08:06.675Z,11.75
2019-06-07T04:10:17.501Z,11.76
2019-06-07T04:12:28.573Z,11.75
2019-06-07T04:14:42.524Z,11.77
2019-06-07T04:16:52.591Z,11.81
2019-06-07T04:19:03.567Z,11.84
2019-06-07T04:21:14.400Z,11.89
2019-06-07T04:23:28.244Z,11.94
2019-06-07T04:25:42.241Z,11.95
2019-06-07T04:27:51.196Z,11.97
2019-06-07T04:30:08.239Z,12.00
2019-06-07T04:32:19.445Z,12.09
2019-06-07T04:34:34.912Z,12.10
2019-06-07T04:36:56.668Z,12.14
2019-06-07T04:38:57.337Z,12.09
2019-06-07T04:41:08.267Z,12.11
2019-06-07T04:43:19.138Z,12.16
2019-06-07T04:45:38.354Z,12.23
2019-06-07T04:47:44.872Z,12.34
2019-06-07T04:49:56.436Z,12.44
2019-06-07T04:52:07.760Z,12.49
2019-06-07T04:54:18.598Z,12.57
2019-06-07T04:56:30.064Z,12.54
2019-06-07T04:58:41.594Z,12.57
2019-06-07T05:00:58.949Z,12.67
2019-06-07T05:03:05.589Z,12.72
2019-06-07T05:05:16.417Z,12.85
2019-06-07T05:07:27.269Z,12.88
2019-06-07T05:09:42.555Z,12.88
2019-06-07T05:11:51.053Z,12.97
2019-06-07T05:14:01.977Z,13.02
2019-06-07T05:16:12.844Z,13.12
2019-06-07T05:18:23.701Z,13.21
2019-06-07T05:20:36.078Z,13.32
2019-06-07T05:22:47.308Z,13.40
2019-06-07T05:24:58.137Z,13.49
2019-06-07T05:27:09.052Z,13.58
2019-06-07T05:29:19.913Z,13.68
2019-06-07T05:31:31.847Z,13.72
2019-06-07T05:33:43.787Z,13.83
2019-06-07T05:35:54.772Z,13.91
2019-06-07T05:38:06.380Z,13.97
2019-06-07T05:40:21.376Z,14.11
2019-06-07T05:42:34.568Z,14.23
2019-06-07T05:44:47.288Z,14.28
2019-06-07T05:46:58.119Z,14.40
2019-06-07T05:49:08.975Z,14.47
2019-06-07T05:51:19.924Z,14.51
2019-06-07T05:53:31.672Z,14.60
2019-06-07T05:55:47.123Z,14.69
2019-06-07T05:57:56.255Z,14.82
2019-06-07T06:00:07.325Z,14.82
2019-06-07T06:02:25.326Z,14.92
2019-06-07T06:04:30.992Z,15.02
2019-06-07T06:06:44.757Z,15.12
2019-06-07T06:09:12.944Z,15.21
2019-06-07T06:11:07.396Z,15.28
2019-06-07T06:13:18.484Z,15.33
2019-06-07T06:15:42.261Z,15.33
2019-06-07T06:17:46.097Z,15.35
2019-06-07T06:19:54.921Z,15.47
2019-06-07T06:22:06.831Z,15.61
2019-06-07T06:24:17.691Z,15.66
2019-06-07T06:26:28.865Z,15.74
2019-06-07T06:28:42.704Z,15.88
2019-06-07T06:30:54.404Z,16.01
2019-06-07T06:33:05.298Z,16.13
2019-06-07T06:35:16.345Z,16.17
2019-06-07T06:37:27.376Z,16.19
2019-06-07T06:39:39.576Z,16.32
2019-06-07T06:42:01.651Z,16.47
2019-06-07T06:44:03.907Z,16.63
2019-06-07T06:46:31.860Z,16.76
2019-06-07T06:48:27.672Z,16.81
2019-06-07T06:50:38.755Z,16.95
2019-06-07T06:52:54.089Z,17.06
2019-06-07T06:55:05.831Z,17.19
2019-06-07T06:57:19.979Z,17.30
2019-06-07T06:59:39.292Z,17.35
2019-06-07T07:01:42.617Z,17.43
2019-06-07T07:04:10.650Z,17.59
2019-06-07T07:06:25.423Z,17.69
2019-06-07T07:08:19.265Z,17.84
2019-06-07T07:10:45.894Z,17.97
2019-06-07T07:12:57.311Z,18.12
2019-06-07T07:15:16.219Z,18.21
2019-06-07T07:17:48.019Z,18.29
2019-06-07T07:19:39.882Z,18.43
2019-06-07T07:21:54.823Z,18.47
2019-06-07T07:24:20.463Z,18.61
2019-06-07T07:26:16.297Z,18.76
2019-06-07T07:28:27.310Z,18.94
2019-06-07T07:30:54.470Z,19.22
2019-06-07T07:33:04.557Z,19.42
2019-06-07T07:35:15.562Z,19.60
2019-06-07T07:37:26.450Z,19.82
2019-06-07T07:39:37.291Z,19.97
2019-06-07T07:42:12.352Z,19.97
2019-06-07T07:44:06.759Z,20.00
2019-06-07T07:46:29.281Z,20.28
2019-06-07T07:48:26.709Z,20.52
2019-06-07T07:50:37.613Z,20.80
2019-06-07T07:52:53.466Z,21.04
2019-06-07T07:55:01.878Z,21.34
2019-06-07T07:57:12.785Z,21.48
2019-06-07T07:59:41.302Z,21.65
2019-06-07T08:01:36.604Z,21.87
2019-06-07T08:03:48.167Z,21.97
2019-06-07T08:06:00.296Z,22.06
2019-06-07T08:08:11.263Z,22.05
2019-06-07T08:10:22.098Z,22.12
2019-06-07T08:12:55.702Z,22.31
2019-06-07T08:14:47.694Z,22.49
2019-06-07T08:16:59.310Z,22.46
2019-06-07T08:19:10.412Z,22.59
2019-06-07T08:21:26.405Z,22.69
2019-06-07T08:23:36.112Z,22.79
2019-06-07T08:25:46.968Z,22.87
2019-06-07T08:27:59.129Z,22.82
2019-06-07T08:30:46.717Z,22.81
2019-06-07T08:32:24.506Z,22.95
2019-06-07T08:34:35.359Z,23.14
2019-06-07T08:36:46.186Z,23.25
2019-06-07T08:39:03.580Z,23.27
2019-06-07T08:41:12.335Z,23.39
2019-06-07T08:43:22.644Z,23.56
2019-06-07T08:45:33.564Z,23.65
2019-06-07T08:47:44.412Z,23.82
2019-06-07T08:49:59.297Z,23.83
2019-06-07T08:52:12.173Z,23.86
2019-06-07T08:54:23.174Z,23.99
2019-06-07T08:56:33.894Z,24.04
2019-06-07T08:58:44.809Z,23.96
2019-06-07T09:00:59.387Z,24.13
2019-06-07T09:03:08.347Z,24.13
2019-06-07T09:05:19.391Z,24.19
2019-06-07T09:07:30.332Z,24.34
2019-06-07T09:09:41.265Z,24.40
2019-06-07T09:11:52.444Z,24.61
2019-06-07T09:14:09.032Z,24.64
2019-06-07T09:16:17.872Z,24.60
2019-06-07T09:18:41.848Z,24.47
2019-06-07T09:20:46.562Z,24.76
2019-06-07T09:23:06.197Z,24.95
2019-06-07T09:25:20.729Z,25.23
2019-06-07T09:27:25.145Z,25.39
2019-06-07T09:29:36.578Z,25.19
2019-06-07T09:31:53.132Z,25.13
2019-06-07T09:34:07.965Z,25.08
2019-06-07T09:36:13.689Z,25.05
2019-06-07T09:38:26.451Z,25.17
2019-06-07T09:40:37.564Z,25.20
2019-06-07T09:42:48.367Z,25.45
2019-06-07T09:45:02.145Z,25.38
2019-06-07T09:47:30.422Z,25.58
2019-06-07T09:49:32.000Z,25.68
2019-06-07T09:51:37.507Z,25.68
2019-06-07T09:53:48.390Z,25.62
2019-06-07T09:56:03.550Z,25.56
2019-06-07T10:00:42.604Z,25.73
2019-06-07T10:02:37.957Z,25.68
2019-06-07T10:04:48.796Z,25.65
2019-06-07T10:07:10.581Z,25.79
2019-06-07T10:11:25.139Z,25.87
2019-06-07T10:13:36.011Z,25.91
2019-06-07T10:15:46.979Z,26.06
2019-06-07T10:17:58.600Z,26.17
2019-06-07T10:20:09.966Z,26.13
2019-06-07T10:22:23.185Z,26.23
2019-06-07T10:24:34.016Z,26.19
2019-06-07T10:26:44.846Z,26.13
2019-06-07T10:28:55.658Z,26.34
2019-06-07T10:31:08.911Z,26.50
2019-06-07T10:33:19.262Z,26.44
2019-06-07T10:35:30.098Z,26.60
2019-06-07T10:37:40.931Z,26.76
2019-06-07T10:39:51.771Z,26.91
2019-06-07T10:42:04.621Z,26.99
2019-06-07T10:44:15.990Z,27.16
2019-06-07T10:46:26.829Z,27.16
2019-06-07T10:48:37.973Z,27.00
2019-06-07T10:50:48.923Z,26.88
2019-06-07T10:52:59.749Z,26.88
2019-06-07T10:55:10.789Z,26.76
2019-06-07T10:57:21.745Z,26.80
2019-06-07T10:59:32.601Z,26.81
2019-06-07T11:01:43.569Z,26.93
2019-06-07T11:03:54.408Z,27.02
2019-06-07T11:06:05.748Z,26.87
2019-06-07T11:08:16.657Z,26.78
2019-06-07T11:10:27.500Z,26.95
2019-06-07T11:12:38.336Z,26.94
2019-06-07T11:14:49.199Z,26.90
2019-06-07T11:17:00.031Z,26.73
2019-06-07T11:19:15.344Z,26.83
2019-06-07T11:21:23.616Z,26.81
2019-06-07T11:23:34.430Z,26.70
2019-06-07T11:25:45.268Z,26.81
2019-06-07T11:27:56.121Z,26.74
2019-06-07T11:30:08.314Z,26.76
2019-06-07T11:32:19.407Z,26.82
2019-06-07T11:34:30.247Z,26.86
2019-06-07T11:36:41.074Z,26.91
2019-06-07T11:38:51.954Z,26.82
2019-06-07T11:41:03.007Z,26.81
2019-06-07T11:43:14.966Z,26.75
2019-06-07T11:45:26.008Z,26.75
2019-06-07T11:47:36.862Z,26.86
2019-06-07T11:49:47.862Z,26.87
2019-06-07T11:51:58.758Z,26.90
2019-06-07T11:54:09.796Z,26.89
2019-06-07T11:56:20.787Z,26.95
2019-06-07T11:58:31.632Z,26.95
2019-06-07T12:00:42.485Z,27.08
2019-06-07T12:02:53.553Z,27.08
2019-06-07T12:05:08.095Z,27.26
2019-06-07T12:07:19.937Z,27.26
2019-06-07T12:09:30.972Z,27.22
2019-06-07T12:11:41.909Z,27.03
2019-06-07T12:13:54.634Z,27.08
2019-06-07T12:16:05.521Z,27.24
2019-06-07T12:18:17.332Z,27.35
2019-06-07T12:20:28.201Z,27.47
2019-06-07T12:22:39.029Z,27.47
2019-06-07T12:24:49.924Z,27.51
2019-06-07T12:27:00.731Z,27.53
2019-06-07T12:29:12.803Z,27.43
2019-06-07T12:31:23.887Z,27.38
2019-06-07T12:33:34.982Z,27.45
2019-06-07T12:35:45.887Z,27.57
2019-06-07T12:37:56.731Z,27.58
2019-06-07T12:40:08.624Z,27.58
2019-06-07T12:42:20.613Z,27.65
2019-06-07T12:44:31.597Z,27.68
2019-06-07T12:46:42.540Z,27.64
2019-06-07T12:48:53.419Z,27.73
2019-06-07T12:51:04.396Z,27.66
2019-06-07T12:53:15.705Z,27.60
2019-06-07T12:55:26.626Z,27.52
2019-06-07T12:57:37.482Z,27.40
2019-06-07T12:59:48.308Z,27.46
2019-06-07T13:02:02.161Z,27.59
2019-06-07T13:04:11.953Z,27.73
2019-06-07T13:06:23.692Z,27.70
2019-06-07T13:08:34.904Z,27.68
2019-06-07T13:10:45.791Z,27.72
2019-06-07T13:12:56.948Z,27.75
2019-06-07T13:15:08.914Z,27.76
2019-06-07T13:17:20.370Z,27.72
2019-06-07T13:19:31.301Z,27.72
2019-06-07T13:21:42.167Z,27.61
2019-06-07T13:23:53.021Z,27.61
2019-06-07T13:26:03.845Z,27.61
2019-06-07T13:28:14.697Z,27.66
2019-06-07T13:30:25.686Z,27.67
2019-06-07T13:32:37.300Z,27.60
2019-06-07T13:34:48.174Z,27.66
2019-06-07T13:36:59.083Z,27.61
2019-06-07T13:39:09.881Z,27.73
2019-06-07T13:41:33.688Z,27.77
2019-06-07T13:43:33.602Z,27.76
2019-06-07T13:45:44.428Z,27.73
2019-06-07T13:47:55.276Z,27.77
2019-06-07T13:50:06.906Z,27.88
2019-06-07T13:52:17.800Z,27.91
2019-06-07T13:54:29.699Z,27.90
2019-06-07T13:57:00.696Z,27.90
2019-06-07T13:58:53.597Z,27.84
2019-06-07T14:01:04.430Z,27.85
2019-06-07T14:03:15.267Z,27.89
2019-06-07T14:05:27.284Z,27.92
2019-06-07T14:07:38.235Z,27.98
2019-06-07T14:09:49.094Z,27.97
2019-06-07T14:11:59.942Z,27.98
2019-06-07T14:14:12.740Z,27.95
2019-06-07T14:16:24.289Z,27.96
2019-06-07T14:18:35.226Z,28.01
2019-06-07T14:20:46.058Z,28.08
2019-06-07T14:22:56.891Z,28.12
2019-06-07T14:25:08.450Z,28.14
2019-06-07T14:27:19.288Z,28.12
2019-06-07T14:29:30.204Z,28.19
2019-06-07T14:31:41.023Z,28.25
2019-06-07T14:33:51.869Z,28.29
2019-06-07T14:36:02.993Z,28.30
2019-06-07T14:38:13.824Z,28.30
2019-06-07T14:40:25.422Z,28.27
2019-06-07T14:42:36.516Z,28.27
2019-06-07T14:44:47.471Z,28.22
2019-06-07T14:46:58.609Z,28.29
2019-06-07T14:49:11.377Z,28.34
2019-06-07T14:51:22.200Z,28.38
2019-06-07T14:53:33.312Z,28.45
2019-06-07T14:55:44.168Z,28.44
2019-06-07T14:57:55.021Z,28.37
2019-06-07T15:00:12.170Z,28.39
2019-06-07T15:02:23.215Z,28.46
2019-06-07T15:04:36.948Z,28.39
2019-06-07T15:06:47.913Z,28.36
2019-06-07T15:08:58.865Z,28.38
2019-06-07T15:11:09.740Z,28.40
2019-06-07T15:13:20.561Z,28.46
2019-06-07T15:15:32.754Z,28.50
2019-06-07T15:17:43.838Z,28.58
2019-06-07T15:19:55.030Z,28.60
2019-06-07T15:22:05.822Z,28.56
2019-06-07T15:24:16.658Z,28.59
2019-06-07T15:26:28.366Z,28.58
2019-06-07T15:28:39.227Z,28.55
2019-06-07T15:30:50.073Z,28.46
2019-06-07T15:33:00.888Z,28.42
2019-06-07T15:35:11.933Z,28.35
2019-06-07T15:37:22.762Z,28.37
2019-06-07T15:39:34.667Z,28.35
2019-06-07T15:41:45.533Z,28.37
2019-06-07T15:43:56.364Z,28.38
2019-06-07T15:46:07.216Z,28.36
2019-06-07T15:48:18.159Z,28.37
2019-06-07T15:50:30.466Z,28.36
2019-06-07T15:52:43.350Z,28.37
2019-06-07T15:54:54.169Z,28.37
2019-06-07T15:57:05.128Z,28.39
2019-06-07T15:59:15.948Z,28.40
2019-06-07T16:01:26.788Z,28.44
2019-06-07T16:03:37.996Z,28.43
2019-06-07T16:05:48.970Z,28.47
2019-06-07T16:07:59.813Z,28.48
2019-06-07T16:10:10.989Z,28.50
2019-06-07T16:12:21.840Z,28.49
2019-06-07T16:14:33.155Z,28.42
2019-06-07T16:16:44.093Z,28.41
2019-06-07T16:18:54.955Z,28.42
2019-06-07T16:21:05.886Z,28.42
2019-06-07T16:23:16.743Z,28.38
2019-06-07T16:25:27.613Z,28.42
2019-06-07T16:27:38.719Z,28.38
2019-06-07T16:29:49.636Z,28.34
2019-06-07T16:32:00.477Z,28.30
2019-06-07T16:34:11.367Z,28.32
2019-06-07T16:36:22.180Z,28.32
2019-06-07T16:38:33.016Z,28.31
2019-06-07T16:40:44.620Z,28.25
2019-06-07T16:42:55.652Z,28.23
2019-06-07T16:45:07.792Z,28.25
2019-06-07T16:47:18.615Z,28.32
2019-06-07T16:49:29.483Z,28.32
2019-06-07T16:51:41.308Z,28.32
2019-06-07T16:53:52.359Z,28.31
2019-06-07T16:56:04.201Z,28.29
2019-06-07T16:58:15.079Z,28.24
2019-06-07T17:00:26.051Z,28.14
2019-06-07T17:02:38.087Z,27.87
2019-06-07T17:04:49.162Z,27.44
2019-06-07T17:06:59.978Z,26.83
2019-06-07T17:09:10.924Z,26.20
2019-06-07T17:11:21.973Z,25.70
2019-06-07T17:13:34.060Z,25.23
2019-06-07T17:15:45.089Z,24.92
2019-06-07T17:17:55.879Z,24.62
2019-06-07T17:20:07.959Z,24.28
2019-06-07T17:22:18.829Z,23.93
2019-06-07T17:24:29.729Z,23.54
2019-06-07T17:26:41.623Z,23.15
2019-06-07T17:28:52.756Z,22.62
2019-06-07T17:31:03.575Z,22.29
2019-06-07T17:33:16.422Z,22.17
2019-06-07T17:35:27.292Z,22.04
2019-06-07T17:37:38.205Z,21.88
2019-06-07T17:39:49.175Z,21.71
2019-06-07T17:42:02.435Z,21.58
2019-06-07T17:44:12.811Z,21.37
2019-06-07T17:46:23.747Z,21.02
2019-06-07T17:48:34.591Z,20.66
2019-06-07T17:50:45.903Z,20.36
2019-06-07T17:52:56.776Z,20.19
2019-06-07T17:55:07.946Z,19.96
2019-06-07T17:57:18.901Z,19.78
2019-06-07T17:59:29.739Z,19.60
2019-06-07T18:01:41.733Z,19.40
2019-06-07T18:03:53.436Z,19.30
2019-06-07T18:06:04.424Z,19.14
2019-06-07T18:08:16.088Z,19.01
2019-06-07T18:10:35.983Z,18.85
2019-06-07T18:12:48.058Z,18.81
2019-06-07T18:14:58.969Z,18.71
2019-06-07T18:17:09.801Z,18.54
2019-06-07T18:19:20.860Z,18.48
2019-06-07T18:21:31.771Z,18.41
2019-06-07T18:23:42.631Z,18.34
2019-06-07T18:25:54.774Z,18.31
2019-06-07T18:28:06.111Z,18.27
2019-06-07T18:30:17.461Z,18.16
2019-06-07T18:32:28.320Z,18.06
2019-06-07T18:34:39.238Z,17.99
2019-06-07T18:36:51.046Z,17.95
2019-06-07T18:39:05.893Z,17.89
2019-06-07T18:41:16.726Z,17.83
2019-06-07T18:43:27.706Z,17.81
2019-06-07T18:45:38.544Z,17.79
2019-06-07T18:47:49.513Z,17.67
2019-06-07T18:50:00.351Z,17.65
2019-06-07T18:52:13.106Z,17.62
2019-06-07T18:54:24.066Z,17.60
2019-06-07T18:56:34.936Z,17.58
2019-06-07T18:58:47.015Z,17.51
2019-06-07T19:00:58.337Z,17.51
2019-06-07T19:03:09.312Z,17.47
2019-06-07T19:05:20.559Z,17.48
2019-06-07T19:07:31.415Z,17.52
2019-06-07T19:09:42.284Z,17.50
2019-06-07T19:11:53.213Z,17.41
2019-06-07T19:14:04.196Z,17.43
2019-06-07T19:16:15.029Z,17.44
2019-06-07T19:18:25.999Z,17.42
2019-06-07T19:20:36.863Z,17.43
2019-06-07T19:22:47.738Z,17.40
2019-06-07T19:24:58.699Z,17.39
2019-06-07T19:27:09.543Z,17.39
2019-06-07T19:29:20.411Z,17.40
2019-06-07T19:31:31.264Z,17.40
2019-06-07T19:33:49.112Z,17.35
2019-06-07T19:35:55.521Z,17.37
2019-06-07T19:38:06.446Z,17.35
2019-06-07T19:40:17.574Z,17.39
2019-06-07T19:42:28.435Z,17.43
2019-06-07T19:44:52.153Z,17.39
2019-06-07T19:46:52.261Z,17.38
2019-06-07T19:49:03.174Z,17.35
2019-06-07T19:51:13.965Z,17.33
2019-06-07T19:53:24.896Z,17.33
2019-06-07T19:55:35.827Z,17.37
2019-06-07T19:57:49.979Z,17.37
2019-06-07T19:59:59.649Z,17.36
2019-06-07T20:02:10.677Z,17.35
2019-06-07T20:04:21.749Z,17.35
2019-06-07T20:06:32.583Z,17.38
2019-06-07T20:08:43.560Z,17.40
2019-06-07T20:10:54.493Z,17.35
2019-06-07T20:13:05.376Z,17.34
2019-06-07T20:15:29.125Z,17.28
2019-06-07T20:17:30.072Z,17.23
2019-06-07T20:19:40.945Z,17.27
2019-06-07T20:21:51.886Z,17.23
2019-06-07T20:24:24.090Z,17.25
2019-06-07T20:26:15.868Z,17.26
2019-06-07T20:28:26.867Z,17.16
2019-06-07T20:30:37.716Z,17.15
2019-06-07T20:32:48.528Z,17.11
2019-06-07T20:34:59.683Z,17.11
2019-06-07T20:37:10.638Z,17.09
2019-06-07T20:39:21.470Z,17.06
2019-06-07T20:41:32.323Z,17.01
2019-06-07T20:43:43.161Z,17.06
2019-06-07T20:45:54.030Z,16.98
2019-06-07T20:48:06.193Z,17.04
2019-06-07T20:50:17.397Z,17.04
2019-06-07T20:52:28.236Z,17.07
2019-06-07T20:54:39.073Z,17.09
2019-06-07T20:56:50.175Z,17.08
2019-06-07T20:59:01.026Z,17.11
2019-06-07T21:01:11.875Z,17.15
2019-06-07T21:03:23.646Z,17.17
2019-06-07T21:05:34.510Z,17.18
2019-06-07T21:07:45.345Z,17.14
2019-06-07T21:09:56.169Z,17.13
2019-06-07T21:12:07.951Z,17.17
2019-06-07T21:14:19.062Z,17.20
2019-06-07T21:16:29.897Z,17.25
2019-06-07T21:18:40.760Z,17.27
2019-06-07T21:20:51.646Z,17.30
2019-06-07T21:23:02.838Z,17.29
2019-06-07T21:25:13.878Z,17.28
2019-06-07T21:27:24.776Z,17.22
2019-06-07T21:29:35.664Z,17.16
2019-06-07T21:31:46.610Z,17.21
2019-06-07T21:33:57.534Z,17.16
2019-06-07T21:36:09.698Z,17.15
2019-06-07T21:38:20.759Z,17.18
2019-06-07T21:40:31.570Z,17.11
2019-06-07T21:42:42.459Z,16.98
2019-06-07T21:44:53.278Z,16.81
2019-06-07T21:47:04.331Z,16.85
2019-06-07T21:49:15.272Z,16.88
2019-06-07T21:51:26.131Z,16.94
2019-06-07T21:53:37.106Z,16.98
2019-06-07T21:55:48.046Z,17.07
2019-06-07T21:57:58.982Z,17.07
2019-06-07T22:00:14.346Z,17.02
2019-06-07T22:02:25.285Z,17.01
2019-06-07T22:04:36.246Z,16.88
2019-06-07T22:06:47.065Z,16.79
2019-06-07T22:08:57.918Z,16.61
2019-06-07T22:11:10.119Z,16.49
2019-06-07T22:13:21.433Z,16.47
2019-06-07T22:15:36.740Z,16.44
2019-06-07T22:17:45.069Z,16.48
2019-06-07T22:19:55.883Z,16.47
2019-06-07T22:22:07.604Z,16.52
2019-06-07T22:24:19.758Z,16.53
2019-06-07T22:26:30.613Z,16.43
2019-06-07T22:28:41.589Z,16.36
2019-06-07T22:30:52.441Z,16.39
2019-06-07T22:33:03.299Z,16.39
2019-06-07T22:35:15.015Z,16.39
2019-06-07T22:37:25.916Z,16.34
2019-06-07T22:39:36.760Z,16.33
2019-06-07T22:41:47.584Z,16.30
2019-06-07T22:43:58.502Z,16.24
2019-06-07T22:46:09.354Z,16.20
2019-06-07T22:48:20.215Z,16.17
2019-06-07T22:50:31.067Z,16.09
2019-06-07T22:52:41.899Z,16.01
2019-06-07T22:54:52.728Z,15.95
2019-06-07T22:57:16.509Z,15.99
2019-06-07T22:59:27.481Z,15.93
2019-06-07T23:01:38.309Z,15.95
2019-06-07T23:03:49.166Z,15.98
2019-06-07T23:05:59.991Z,15.88
2019-06-07T23:08:11.034Z,15.82
2019-06-07T23:10:21.982Z,15.81
2019-06-07T23:12:32.860Z,15.79
2019-06-07T23:14:43.752Z,15.76
2019-06-07T23:16:56.116Z,15.76
2019-06-07T23:19:07.215Z,15.79
2019-06-07T23:21:18.270Z,15.78
2019-06-07T23:23:29.040Z,15.79
2019-06-07T23:25:39.883Z,15.72
2019-06-07T23:27:50.756Z,15.68
2019-06-07T23:30:08.661Z,15.68
2019-06-07T23:32:20.167Z,15.61
2019-06-07T23:34:32.121Z,15.55
2019-06-07T23:36:42.969Z,15.54
2019-06-07T23:38:53.785Z,15.62
2019-06-07T23:41:04.627Z,15.63
2019-06-07T23:43:15.445Z,15.64
2019-06-07T23:45:26.428Z,15.56
2019-06-07T23:47:37.245Z,15.45
2019-06-07T23:49:48.072Z,15.42
2019-06-07T23:51:58.913Z,15.44
2019-06-07T23:54:09.748Z,15.53
2019-06-07T23:56:20.590Z,15.56
2019-06-07T23:58:31.478Z,15.49
